Time;durP1;ratioP1;P1;durP2;ratioP2;P2;SDS_P1;SDS_P2;PMS_P1;PMS_P2;Temp;Humidity;BMP_temperature;BMP_pressure;BME280_temperature;BME280_humidity;BME280_pressure;Samples;Min_cycle;Max_cycle;Signal;HPM_P1;HPM_P2
2021/10/15 00:01:07;;;;;;;4.70;2.58;;;;;;;11.17;51.06;101201.94;4993207;28;20038;-65
2021/10/15 00:03:33;;;;;;;6.50;2.60;;;;;;;11.43;50.22;101199.19;4987854;28;20069;-65
2021/10/15 00:05:58;;;;;;;6.55;2.65;;;;;;;11.32;50.15;101196.16;4990879;28;20422;-64
2021/10/15 00:08:24;;;;;;;7.00;2.22;;;;;;;10.81;51.53;101189.28;4988411;28;20089;-65
2021/10/15 00:10:52;;;;;;;7.53;2.58;;;;;;;11.21;50.73;101187.84;4990322;28;20454;-64
2021/10/15 00:13:17;;;;;;;4.45;1.73;;;;;;;11.38;50.21;101185.44;4991631;28;20526;-64
2021/10/15 00:15:43;;;;;;;6.97;2.10;;;;;;;11.41;49.89;101193.16;4989571;28;20073;-64
2021/10/15 00:18:08;;;;;;;11.45;2.63;;;;;;;10.97;51.30;101187.88;4992751;28;20042;-64
2021/10/15 00:20:34;;;;;;;6.63;1.98;;;;;;;10.77;51.96;101182.44;4990316;28;20091;-64
2021/10/15 00:22:59;;;;;;;5.45;1.92;;;;;;;11.16;51.08;101179.34;4990119;28;20042;-64
2021/10/15 00:25:25;;;;;;;3.38;2.10;;;;;;;10.59;52.44;101174.38;4990206;28;20045;-63
2021/10/15 00:27:50;;;;;;;7.15;2.33;;;;;;;10.58;52.37;101180.50;4991463;28;20050;-65
2021/10/15 00:30:16;;;;;;;7.32;2.08;;;;;;;10.36;53.13;101153.41;4990730;28;20135;-65
2021/10/15 00:32:41;;;;;;;6.53;2.33;;;;;;;10.55;52.69;101162.31;4991759;28;20104;-64
2021/10/15 00:35:07;;;;;;;11.05;2.53;;;;;;;10.84;52.02;101157.84;4991331;28;20065;-64
2021/10/15 00:37:32;;;;;;;4.65;1.98;;;;;;;10.98;51.56;101159.94;4987622;28;20042;-63
2021/10/15 00:39:58;;;;;;;7.68;2.65;;;;;;;10.62;52.65;101142.91;4992375;28;20448;-64
2021/10/15 00:42:24;;;;;;;5.97;2.08;;;;;;;10.96;51.86;101151.31;4989326;28;20478;-64
2021/10/15 00:44:49;;;;;;;9.60;2.17;;;;;;;11.27;50.96;101145.75;4990124;28;20067;-65
2021/10/15 00:47:15;;;;;;;6.97;1.77;;;;;;;11.01;51.32;101150.19;4987951;28;20298;-65
2021/10/15 00:49:40;;;;;;;8.18;2.70;;;;;;;10.82;52.28;101134.34;4990191;28;20045;-64
2021/10/15 00:52:09;;;;;;;7.88;2.35;;;;;;;10.86;52.21;101137.72;4991985;28;20067;-64
2021/10/15 00:54:35;;;;;;;7.78;2.80;;;;;;;10.95;52.09;101139.13;4990524;28;20026;-64
2021/10/15 00:57:01;;;;;;;8.18;2.63;;;;;;;11.10;51.41;101127.25;4978534;28;20122;-65
2021/10/15 00:59:27;;;;;;;5.78;2.08;;;;;;;10.65;52.69;101121.00;4986848;28;20026;-64
2021/10/15 01:01:52;;;;;;;6.03;1.38;;;;;;;10.63;52.40;101122.84;4987321;28;20038;-64
2021/10/15 01:04:19;;;;;;;9.57;2.10;;;;;;;10.80;51.90;101127.44;4992594;28;20546;-63
2021/10/15 01:06:46;;;;;;;9.27;1.95;;;;;;;10.41;52.99;101120.13;4989927;28;20181;-64
2021/10/15 01:09:11;;;;;;;3.92;1.13;;;;;;;11.00;52.17;101114.50;4989935;28;20415;-64
2021/10/15 01:11:37;;;;;;;8.23;1.30;;;;;;;10.38;53.36;101108.03;4990964;28;20038;-64
2021/10/15 01:14:06;;;;;;;4.65;1.10;;;;;;;10.79;52.53;101102.19;5008246;28;20489;-64
2021/10/15 01:16:33;;;;;;;12.80;1.30;;;;;;;11.19;51.27;101104.19;4994128;28;20025;-64
2021/10/15 01:19:01;;;;;;;10.00;2.20;;;;;;;10.86;52.64;101102.84;5010701;28;20048;-66
2021/10/15 01:21:28;;;;;;;7.18;1.33;;;;;;;11.11;51.59;101093.19;5000117;28;20029;-66
2021/10/15 01:23:55;;;;;;;3.40;1.08;;;;;;;10.67;52.66;101098.28;5009161;28;20040;-65
2021/10/15 01:26:21;;;;;;;5.15;1.40;;;;;;;11.19;51.63;101085.88;5008531;28;20037;-67
2021/10/15 01:28:47;;;;;;;7.97;1.67;;;;;;;10.68;52.84;101080.84;4989988;28;20047;-66
2021/10/15 01:31:13;;;;;;;2.60;1.17;;;;;;;10.63;53.04;101081.84;4995031;28;20416;-65
2021/10/15 01:33:38;;;;;;;4.38;0.93;;;;;;;10.82;52.71;101078.59;4998930;28;20053;-67
2021/10/15 01:36:04;;;;;;;5.13;1.52;;;;;;;10.79;52.62;101070.81;5008864;28;20062;-66
2021/10/15 01:38:30;;;;;;;4.63;1.35;;;;;;;10.78;52.83;101069.97;5010252;28;20433;-66
2021/10/15 01:40:55;;;;;;;5.80;1.35;;;;;;;11.27;51.20;101067.25;4992370;28;20042;-64
2021/10/15 01:43:24;;;;;;;4.00;1.27;;;;;;;10.45;53.25;101072.09;4995510;28;20053;-66
2021/10/15 01:45:49;;;;;;;4.60;1.75;;;;;;;10.40;53.84;101061.78;5011894;28;20040;-67
2021/10/15 01:48:15;;;;;;;4.20;0.75;;;;;;;10.82;52.81;101049.84;5009290;28;20041;-66
2021/10/15 01:50:40;;;;;;;10.75;2.20;;;;;;;10.81;52.75;101048.09;5008244;28;20187;-66
2021/10/15 01:53:06;;;;;;;12.48;1.23;;;;;;;10.80;52.64;101054.25;5010928;28;20480;-66
2021/10/15 01:55:31;;;;;;;3.00;1.05;;;;;;;10.71;53.42;101051.97;5008882;28;20069;-65
2021/10/15 01:57:56;;;;;;;4.50;1.92;;;;;;;10.77;53.33;101041.28;4991431;28;20101;-66
2021/10/15 02:00:22;;;;;;;4.38;1.42;;;;;;;10.57;53.78;101035.06;5011881;28;20065;-66
2021/10/15 02:02:48;;;;;;;5.70;1.58;;;;;;;10.73;52.84;101024.88;5009746;28;20100;-66
2021/10/15 02:05:16;;;;;;;5.47;1.70;;;;;;;10.98;52.72;101014.34;5011002;28;20049;-66
2021/10/15 02:07:43;;;;;;;6.28;2.15;;;;;;;10.93;52.96;101016.28;5009912;28;20129;-66
2021/10/15 02:10:10;;;;;;;4.57;2.58;;;;;;;11.25;52.01;100996.66;5010190;28;20029;-64
2021/10/15 02:12:36;;;;;;;5.13;2.35;;;;;;;9.95;55.11;100999.00;5007151;28;20053;-64
2021/10/15 02:15:04;;;;;;;3.95;1.98;;;;;;;10.83;53.05;100999.25;5010905;28;20069;-63
2021/10/15 02:17:30;;;;;;;7.40;2.05;;;;;;;10.15;54.74;100996.53;5011192;28;20073;-63
2021/10/15 02:19:55;;;;;;;5.05;2.50;;;;;;;10.56;54.14;100990.66;5008254;28;20058;-64
2021/10/15 02:22:21;;;;;;;5.38;2.67;;;;;;;10.67;53.71;100985.03;4992597;28;20088;-64
2021/10/15 02:24:46;;;;;;;9.63;2.30;;;;;;;10.71;53.70;100973.56;5011000;28;20048;-64
2021/10/15 02:27:12;;;;;;;9.63;2.22;;;;;;;10.62;53.63;100957.31;5012220;28;20049;-65
2021/10/15 02:29:37;;;;;;;7.07;2.08;;;;;;;11.00;53.21;100964.59;5012711;28;20037;-66
2021/10/15 02:32:03;;;;;;;5.63;2.90;;;;;;;10.04;55.84;100974.34;5013841;28;20046;-66
2021/10/15 02:34:28;;;;;;;4.70;2.25;;;;;;;10.39;54.70;100973.00;5013211;28;20172;-66
2021/10/15 02:36:54;;;;;;;7.25;2.60;;;;;;;10.04;56.50;100962.13;4996456;28;20052;-65
2021/10/15 02:39:20;;;;;;;5.18;2.80;;;;;;;10.67;54.30;100967.59;5004935;28;20506;-66
2021/10/15 02:41:45;;;;;;;6.47;3.47;;;;;;;10.72;53.96;100956.94;4998789;28;20049;-66
2021/10/15 02:44:13;;;;;;;6.30;3.78;;;;;;;11.02;53.38;100957.53;5008324;28;20057;-67
2021/10/15 02:46:41;;;;;;;5.65;2.78;;;;;;;10.93;53.39;100947.41;5013183;28;20139;-67
2021/10/15 02:49:07;;;;;;;8.63;3.05;;;;;;;10.62;54.74;100948.63;5011996;28;20123;-65
2021/10/15 02:51:33;;;;;;;8.35;3.38;;;;;;;10.90;54.09;100953.63;5012427;28;20124;-65
2021/10/15 02:53:59;;;;;;;8.35;3.25;;;;;;;10.93;53.80;100950.91;5011695;28;20041;-64
2021/10/15 02:56:25;;;;;;;5.95;3.70;;;;;;;11.11;53.44;100940.63;5011323;28;20025;-64
2021/10/15 02:58:50;;;;;;;16.25;4.32;;;;;;;10.91;54.02;100929.19;4995513;28;20681;-64
2021/10/15 03:01:16;;;;;;;8.73;4.05;;;;;;;11.07;54.23;100928.56;5013610;28;20140;-64
2021/10/15 03:03:43;;;;;;;12.93;4.68;;;;;;;10.98;54.35;100925.41;5012421;28;20065;-64
2021/10/15 03:06:09;;;;;;;12.23;4.97;;;;;;;11.07;54.29;100918.13;5012204;28;20061;-65
2021/10/15 03:08:34;;;;;;;10.48;5.45;;;;;;;11.11;54.16;100915.31;5010093;28;20544;-67
2021/10/15 03:11:00;;;;;;;8.90;5.00;;;;;;;11.11;54.10;100904.84;5013919;28;20100;-65
2021/10/15 03:13:26;;;;;;;15.65;5.90;;;;;;;10.87;54.86;100898.84;4996321;28;20136;-63
2021/10/15 03:15:51;;;;;;;12.57;5.25;;;;;;;10.88;55.16;100903.16;5012356;28;20599;-63
2021/10/15 03:18:17;;;;;;;9.57;5.40;;;;;;;10.55;55.66;100897.50;5011761;28;20061;-62
2021/10/15 03:20:42;;;;;;;11.52;6.20;;;;;;;10.88;55.11;100891.84;4998034;28;20040;-63
2021/10/15 03:23:08;;;;;;;11.43;7.55;;;;;;;10.96;54.97;100885.41;4995724;28;20038;-63
2021/10/15 03:25:34;;;;;;;12.23;5.65;;;;;;;11.06;54.55;100891.09;5011600;28;20391;-65
2021/10/15 03:27:59;;;;;;;15.55;7.40;;;;;;;11.42;53.55;100888.69;5011644;28;20042;-65
2021/10/15 03:30:27;;;;;;;15.63;7.13;;;;;;;11.23;54.42;100887.78;5012082;28;20044;-63
2021/10/15 03:32:52;;;;;;;16.15;7.97;;;;;;;10.75;55.26;100883.63;5012173;28;20462;-64
2021/10/15 03:35:18;;;;;;;18.85;7.93;;;;;;;10.66;55.85;100873.53;4994123;28;20035;-64
2021/10/15 03:37:44;;;;;;;15.00;7.43;;;;;;;10.79;55.68;100874.75;5013846;28;20544;-65
2021/10/15 03:40:10;;;;;;;15.98;8.13;;;;;;;11.10;54.76;100860.44;5010290;28;20044;-64
2021/10/15 03:42:36;;;;;;;15.88;8.35;;;;;;;10.56;56.66;100871.28;5011163;28;20096;-66
2021/10/15 03:45:01;;;;;;;18.27;9.75;;;;;;;10.40;57.05;100859.75;4996353;28;20543;-63
2021/10/15 03:47:26;;;;;;;13.52;8.63;;;;;;;10.43;56.95;100865.69;4992073;28;20169;-64
2021/10/15 03:49:52;;;;;;;20.38;8.48;;;;;;;10.56;56.63;100860.00;5012619;28;20133;-64
2021/10/15 03:52:17;;;;;;;16.05;8.90;;;;;;;10.86;55.81;100852.72;5011668;28;20072;-64
2021/10/15 03:54:43;;;;;;;17.65;10.10;;;;;;;10.14;57.72;100864.22;5011102;28;20590;-65
2021/10/15 03:57:08;;;;;;;15.63;9.02;;;;;;;10.69;56.54;100855.13;5009790;28;20060;-64
2021/10/15 03:59:34;;;;;;;18.75;9.43;;;;;;;10.56;57.04;100860.00;4996979;28;20041;-64
2021/10/15 04:02:00;;;;;;;20.40;10.68;;;;;;;10.30;57.75;100822.69;4995939;28;20040;-65
2021/10/15 04:04:25;;;;;;;17.27;10.45;;;;;;;10.27;58.21;100848.09;5013562;28;20150;-66
2021/10/15 04:06:51;;;;;;;21.52;10.45;;;;;;;11.09;56.10;100843.06;5008805;28;20037;-65
2021/10/15 04:09:16;;;;;;;21.85;11.23;;;;;;;10.62;57.81;100844.91;4998862;28;20029;-66
2021/10/15 04:11:42;;;;;;;18.70;10.80;;;;;;;10.14;60.05;100843.31;4980260;28;20042;-64
2021/10/15 04:14:07;;;;;;;18.92;10.93;;;;;;;10.43;58.94;100841.34;5011661;28;20042;-65
2021/10/15 04:16:33;;;;;;;24.92;11.75;;;;;;;10.38;59.12;100838.06;5012314;28;20036;-66
2021/10/15 04:18:59;;;;;;;20.08;10.02;;;;;;;10.14;59.87;100832.88;5012127;28;20045;-67
2021/10/15 04:21:25;;;;;;;23.83;12.20;;;;;;;9.64;62.08;100826.94;5011388;28;20039;-63
2021/10/15 04:23:51;;;;;;;23.02;10.85;;;;;;;10.11;60.18;100817.34;5010091;28;20385;-64
2021/10/15 04:26:17;;;;;;;24.42;11.57;;;;;;;10.45;59.86;100818.63;5002643;28;20064;-64
2021/10/15 04:28:43;;;;;;;17.83;10.15;;;;;;;10.46;59.67;100807.25;5010905;28;20056;-67
2021/10/15 04:31:08;;;;;;;19.08;11.05;;;;;;;10.30;60.21;100814.00;5012696;28;20360;-65
2021/10/15 04:33:34;;;;;;;22.33;11.27;;;;;;;10.39;60.19;100816.25;5009333;28;20135;-66
2021/10/15 04:35:59;;;;;;;26.23;11.45;;;;;;;10.56;59.49;100818.19;5011410;28;20045;-65
2021/10/15 04:38:25;;;;;;;21.98;11.25;;;;;;;10.73;59.09;100799.19;5009458;28;20041;-66
2021/10/15 04:40:50;;;;;;;22.13;10.98;;;;;;;9.63;62.80;100799.13;5024217;28;20037;-67
2021/10/15 04:43:16;;;;;;;25.92;9.90;;;;;;;10.21;61.01;100796.94;5017508;28;20511;-65
2021/10/15 04:45:41;;;;;;;19.90;10.43;;;;;;;10.26;61.00;100815.91;5010466;28;20052;-65
2021/10/15 04:48:07;;;;;;;16.33;10.55;;;;;;;10.56;59.93;100826.88;5010149;28;20068;-65
2021/10/15 04:50:36;;;;;;;18.95;9.00;;;;;;;10.97;58.60;100829.59;5009315;28;20041;-65
2021/10/15 04:53:06;;;;;;;18.80;9.68;;;;;;;10.60;59.81;100828.44;4998842;28;20411;-65
2021/10/15 04:55:32;;;;;;;19.27;9.93;;;;;;;10.36;61.00;100827.66;5010917;28;20096;-65
2021/10/15 04:58:00;;;;;;;19.63;8.55;;;;;;;10.88;58.96;100819.47;5008947;28;20144;-66
2021/10/15 05:00:26;;;;;;;20.83;8.82;;;;;;;10.83;59.39;100821.44;4994068;28;20040;-65
2021/10/15 05:02:52;;;;;;;10.85;5.25;;;;;;;9.97;61.69;100850.97;5008740;28;20528;-64
2021/10/15 05:05:20;;;;;;;6.20;1.20;;;;;;;10.10;60.29;100856.56;5013874;28;20087;-65
2021/10/15 05:07:46;;;;;;;3.35;0.77;;;;;;;10.25;59.73;100852.53;5010453;28;20044;-64
2021/10/15 05:10:11;;;;;;;7.50;0.65;;;;;;;10.70;58.03;100867.28;5009988;28;23629;-64
2021/10/15 05:12:39;;;;;;;2.70;0.40;;;;;;;10.40;58.65;100871.06;5010784;28;20062;-64
2021/10/15 05:15:10;;;;;;;4.78;0.50;;;;;;;10.50;57.80;100881.13;5009880;28;20033;-64
2021/10/15 05:17:37;;;;;;;5.30;0.30;;;;;;;10.32;58.41;100896.63;5010857;28;20592;-64
2021/10/15 05:20:08;;;;;;;11.40;0.45;;;;;;;10.48;57.60;100902.13;5012203;28;20072;-64
2021/10/15 05:22:34;;;;;;;10.38;0.77;;;;;;;10.10;58.26;100896.63;5011024;28;20100;-64
2021/10/15 05:25:00;;;;;;;5.32;0.20;;;;;;;10.14;58.39;100910.38;5011112;28;20064;-65
2021/10/15 05:27:27;;;;;;;3.88;0.10;;;;;;;10.11;58.09;100921.81;5010142;28;20447;-66
2021/10/15 05:29:53;;;;;;;10.57;0.55;;;;;;;9.46;59.97;100928.47;5009621;28;20033;-66
2021/10/15 05:32:19;;;;;;;8.80;0.10;;;;;;;9.48;59.48;100939.69;5009803;28;20080;-64
2021/10/15 05:34:46;;;;;;;7.05;0.57;;;;;;;9.14;59.24;100953.00;5010312;28;20040;-64
2021/10/15 05:37:13;;;;;;;6.82;0.30;;;;;;;9.38;59.05;100936.53;5008636;28;20053;-64
2021/10/15 05:39:39;;;;;;;9.82;0.40;;;;;;;9.39;58.69;100938.25;5011137;28;20061;-65
2021/10/15 05:42:05;;;;;;;7.53;1.02;;;;;;;9.00;58.95;100945.63;5009823;28;20061;-66
2021/10/15 05:44:31;;;;;;;12.02;0.25;;;;;;;8.77;58.55;100959.41;5012231;28;20033;-65
2021/10/15 05:46:59;;;;;;;10.90;0.20;;;;;;;8.69;58.42;100970.00;5009632;28;20057;-64
2021/10/15 05:49:25;;;;;;;4.72;0.10;;;;;;;8.52;58.33;100970.53;5010922;28;20104;-63
2021/10/15 05:51:50;;;;;;;7.82;0.10;;;;;;;8.59;57.87;100967.75;5009183;28;20475;-65
2021/10/15 05:54:25;;;;;;;3.15;0.22;;;;;;;8.47;57.75;100967.22;5011727;28;20040;-65
2021/10/15 05:57:13;;;;;;;1.23;0.10;;;;;;;8.44;58.40;100972.50;5003886;28;20045;-67
2021/10/15 05:59:40;;;;;;;3.80;0.30;;;;;;;8.23;59.27;100988.78;5001418;28;20502;-65
2021/10/15 06:02:07;;;;;;;5.60;0.20;;;;;;;8.45;58.40;101000.28;5012757;28;20187;-65
2021/10/15 06:15:13;;;;;;;6.70;0.28;;;;;;;9.11;57.38;101032.19;5017164;28;20033;-66
2021/10/15 06:17:43;;;;;;;4.82;0.30;;;;;;;9.01;57.80;101029.91;4998161;28;20103;-65
2021/10/15 06:20:13;;;;;;;3.85;0.30;;;;;;;8.76;58.44;101033.25;5000734;28;20517;-66
2021/10/15 06:22:39;;;;;;;8.40;0.30;;;;;;;9.04;57.83;101037.66;5013152;28;20502;-65
2021/10/15 06:25:05;;;;;;;4.80;0.95;;;;;;;9.08;58.19;101042.72;5013728;28;20391;-66
2021/10/15 06:27:31;;;;;;;9.52;0.30;;;;;;;8.98;58.33;101052.59;5011104;28;20194;-65
2021/10/15 06:29:56;;;;;;;6.93;0.50;;;;;;;8.75;59.51;101050.66;4996147;28;20124;-66
2021/10/15 06:32:23;;;;;;;6.75;0.73;;;;;;;8.87;58.46;101049.41;4994717;28;20168;-65
2021/10/15 06:34:49;;;;;;;9.68;0.57;;;;;;;9.03;58.19;101044.63;5015665;28;20037;-66
2021/10/15 06:37:17;;;;;;;5.95;0.30;;;;;;;8.82;57.80;101029.63;5010895;28;20100;-66
2021/10/15 06:39:43;;;;;;;6.32;0.82;;;;;;;8.59;58.35;101032.88;4995396;28;20106;-65
2021/10/15 06:42:08;;;;;;;2.47;0.47;;;;;;;8.71;58.25;101040.38;5011552;28;20568;-65
2021/10/15 06:44:33;;;;;;;7.90;0.80;;;;;;;9.17;56.93;101044.19;5012015;28;20041;-65
2021/10/15 06:46:59;;;;;;;5.22;0.35;;;;;;;9.01;57.48;101048.16;4979881;28;20476;-66
2021/10/15 06:49:25;;;;;;;7.00;0.35;;;;;;;8.98;57.02;101056.91;5013184;28;20039;-65
2021/10/15 06:51:50;;;;;;;10.10;1.30;;;;;;;9.03;56.99;101048.97;5013086;28;20920;-65
2021/10/15 06:54:16;;;;;;;10.38;0.30;;;;;;;8.69;57.73;101057.75;5002443;28;20509;-66
2021/10/15 06:56:41;;;;;;;8.15;0.50;;;;;;;9.04;56.80;101061.13;5013965;28;20228;-66
2021/10/15 06:59:07;;;;;;;5.88;0.32;;;;;;;8.93;56.84;101057.06;4995198;28;20445;-65
2021/10/15 07:01:33;;;;;;;9.38;0.30;;;;;;;8.94;56.31;101056.19;5012572;28;20553;-65
2021/10/15 07:03:59;;;;;;;6.30;0.30;;;;;;;8.80;56.77;101065.31;5011113;28;20050;-66
2021/10/15 07:06:25;;;;;;;6.97;0.50;;;;;;;8.92;56.08;101077.97;5012174;28;20041;-65
2021/10/15 07:08:53;;;;;;;6.70;0.50;;;;;;;8.97;56.02;101076.94;5013695;28;20579;-65
2021/10/15 07:11:18;;;;;;;5.18;0.60;;;;;;;8.84;56.93;101079.97;5009998;28;20095;-65
2021/10/15 07:13:44;;;;;;;2.28;0.45;;;;;;;9.05;56.16;101099.31;4997488;28;20037;-67
2021/10/15 07:16:10;;;;;;;4.88;0.30;;;;;;;9.23;56.04;101103.09;4997136;28;20822;-65
2021/10/15 07:18:39;;;;;;;8.55;2.30;;;;;;;9.10;56.26;101100.03;4994478;28;20046;-64
2021/10/15 07:21:06;;;;;;;6.85;1.15;;;;;;;9.33;55.86;101110.59;4996816;28;20130;-65
2021/10/15 07:23:32;;;;;;;12.18;2.88;;;;;;;9.29;56.31;101119.41;5011778;28;20065;-66
2021/10/15 07:26:02;;;;;;;9.07;1.17;;;;;;;9.31;55.82;101129.81;5012593;28;20044;-66
2021/10/15 07:28:28;;;;;;;6.53;0.43;;;;;;;9.26;55.41;101145.63;5010943;28;20121;-66
2021/10/15 07:30:54;;;;;;;1.75;0.20;;;;;;;8.54;55.43;101137.22;5012625;28;20143;-64
2021/10/15 07:33:21;;;;;;;6.68;0.52;;;;;;;8.81;54.27;101153.88;5012035;28;20045;-64
2021/10/15 07:35:47;;;;;;;4.47;0.28;;;;;;;8.60;53.92;101138.81;5013763;28;20076;-64
2021/10/15 07:38:12;;;;;;;5.00;0.28;;;;;;;8.99;53.27;101149.91;5008295;28;20149;-64
2021/10/15 07:40:38;;;;;;;6.43;0.40;;;;;;;9.11;52.79;101151.28;4982970;28;20030;-64
2021/10/15 07:43:04;;;;;;;3.78;0.22;;;;;;;9.09;53.02;101155.69;5012464;28;20030;-63
2021/10/15 07:45:29;;;;;;;4.47;0.63;;;;;;;8.96;53.36;101169.09;5010009;28;20494;-64
2021/10/15 07:47:56;;;;;;;10.20;1.08;;;;;;;9.12;52.99;101166.88;5007714;28;20491;-65
2021/10/15 07:50:22;;;;;;;12.15;0.95;;;;;;;9.25;52.88;101163.91;4997338;28;20037;-65
2021/10/15 07:52:47;;;;;;;10.55;0.55;;;;;;;9.30;53.37;101175.94;5010363;28;20430;-66
2021/10/15 07:55:13;;;;;;;4.55;0.70;;;;;;;9.56;52.44;101180.31;5011995;28;20029;-66
2021/10/15 07:57:38;;;;;;;6.03;0.50;;;;;;;9.36;52.75;101193.97;5010255;28;20441;-64
2021/10/15 08:00:07;;;;;;;10.77;1.25;;;;;;;9.59;52.49;101205.50;5011640;28;20030;-66
2021/10/15 08:02:37;;;;;;;7.03;1.05;;;;;;;9.72;52.64;101205.97;5010055;28;20048;-65
2021/10/15 08:05:04;;;;;;;4.78;0.35;;;;;;;10.06;51.87;101205.78;5012348;28;20604;-64
2021/10/15 08:07:30;;;;;;;6.10;1.08;;;;;;;10.18;50.67;101210.59;5011699;28;20044;-64
2021/10/15 08:09:55;;;;;;;8.82;0.93;;;;;;;10.82;49.36;101217.19;5010837;28;20501;-64
2021/10/15 08:12:21;;;;;;;7.35;1.08;;;;;;;10.64;47.06;101214.28;5012055;28;20042;-64
2021/10/15 08:14:46;;;;;;;6.10;0.52;;;;;;;10.52;47.31;101214.69;5012738;28;20096;-64
2021/10/15 08:17:12;;;;;;;15.18;1.65;;;;;;;10.44;47.64;101221.94;5011899;28;20072;-66
2021/10/15 08:19:39;;;;;;;15.82;1.38;;;;;;;10.37;48.06;101220.44;5011437;28;20034;-65
2021/10/15 08:22:05;;;;;;;8.68;1.02;;;;;;;10.26;48.91;101227.78;5011545;28;20030;-65
2021/10/15 08:24:31;;;;;;;8.50;0.77;;;;;;;10.19;49.26;101235.84;4993104;28;20501;-65
2021/10/15 08:26:56;;;;;;;4.68;0.45;;;;;;;11.37;48.44;101240.47;5000157;28;20038;-65
2021/10/15 08:29:23;;;;;;;5.50;1.10;;;;;;;12.52;43.69;101245.56;5008380;28;20040;-66
2021/10/15 08:31:50;;;;;;;9.82;0.60;;;;;;;14.16;41.32;101245.97;5011938;28;20037;-65
2021/10/15 08:34:17;;;;;;;9.05;0.95;;;;;;;15.47;38.96;101245.34;5012595;28;20029;-63
2021/10/15 08:36:46;;;;;;;8.07;0.82;;;;;;;15.59;38.80;101255.25;4993740;28;20465;-64
2021/10/15 08:39:16;;;;;;;6.95;0.50;;;;;;;14.82;38.27;101268.13;5009940;28;20137;-64
2021/10/15 08:41:41;;;;;;;10.30;0.98;;;;;;;13.34;40.16;101275.22;5012237;28;20397;-65
2021/10/15 08:44:07;;;;;;;12.52;1.30;;;;;;;11.90;43.16;101273.38;4995543;28;20042;-64
2021/10/15 08:46:36;;;;;;;19.88;1.35;;;;;;;12.00;43.44;101272.97;5011010;28;20441;-66
2021/10/15 08:49:02;;;;;;;15.82;1.02;;;;;;;11.52;43.60;101273.91;5010201;28;20057;-64
2021/10/15 08:51:28;;;;;;;12.00;1.63;;;;;;;11.02;45.30;101282.72;5011494;28;20139;-65
2021/10/15 08:53:58;;;;;;;17.52;1.50;;;;;;;11.18;45.34;101290.84;5008801;28;20136;-65
2021/10/15 08:56:27;;;;;;;14.27;1.05;;;;;;;11.29;45.29;101300.09;5008411;28;20304;-64
2021/10/15 08:59:02;;;;;;;15.45;1.45;;;;;;;11.57;43.96;101302.53;5010426;28;20050;-65
2021/10/15 09:01:39;;;;;;;12.07;0.60;;;;;;;12.10;43.06;101312.75;5009449;28;20034;-65
2021/10/15 09:04:05;;;;;;;10.73;1.17;;;;;;;12.43;42.03;101318.41;5008585;28;20064;-64
2021/10/15 09:06:35;;;;;;;14.88;1.40;;;;;;;12.92;40.17;101319.94;4990388;28;20041;-65
2021/10/15 09:09:02;;;;;;;7.45;0.70;;;;;;;13.61;38.30;101319.56;5003885;28;20208;-64
2021/10/15 09:11:34;;;;;;;11.07;1.42;;;;;;;13.71;36.48;101315.56;5008142;28;20087;-65
2021/10/15 09:14:25;;;;;;;10.50;0.60;;;;;;;13.98;35.72;101320.44;4976635;28;20096;-65
2021/10/15 09:16:52;;;;;;;4.20;1.08;;;;;;;14.29;36.41;101323.31;5005159;28;20061;-64
2021/10/15 09:19:31;;;;;;;6.82;0.88;;;;;;;14.34;35.83;101326.59;5013129;28;20474;-65
2021/10/15 09:22:06;;;;;;;6.82;0.55;;;;;;;14.24;37.08;101327.94;4988709;28;20499;-65
2021/10/15 09:24:46;;;;;;;14.80;1.40;;;;;;;14.21;37.02;101341.25;5004621;28;20595;-64
2021/10/15 09:27:14;;;;;;;9.43;0.63;;;;;;;14.33;37.00;101348.53;5008749;28;20048;-64
2021/10/15 09:29:56;;;;;;;10.75;1.33;;;;;;;12.77;37.70;101358.16;5005282;28;20041;-64
2021/10/15 09:32:24;;;;;;;13.70;0.95;;;;;;;13.69;37.94;101362.06;5007135;28;20049;-64
2021/10/15 09:34:51;;;;;;;13.75;1.52;;;;;;;14.41;36.45;101360.47;5005877;28;20034;-65
2021/10/15 09:37:20;;;;;;;8.48;0.88;;;;;;;14.22;34.71;101358.72;4991831;28;20404;-63
2021/10/15 09:39:47;;;;;;;10.48;1.83;;;;;;;13.86;36.96;101374.44;4978615;28;20030;-65
2021/10/15 09:42:27;;;;;;;14.25;1.20;;;;;;;14.30;36.29;101374.09;5005884;28;20045;-64
2021/10/15 09:44:54;;;;;;;8.77;1.08;;;;;;;13.72;35.96;101375.91;5006330;28;20507;-65
2021/10/15 09:47:26;;;;;;;10.02;1.48;;;;;;;13.13;35.68;101383.75;5004622;28;20108;-63
2021/10/15 09:49:59;;;;;;;;;;;;;;;13.34;35.89;101385.47;5007812;28;20092;-64
2021/10/15 09:52:27;;;;;;;11.57;1.40;;;;;;;13.97;35.48;101393.19;5005224;28;20386;-66
2021/10/15 09:54:59;;;;;;;12.38;0.68;;;;;;;13.67;34.66;101403.28;5005855;28;20056;-65
2021/10/15 09:57:31;;;;;;;9.65;0.70;;;;;;;14.10;33.96;101410.09;4991976;28;20505;-64
2021/10/15 09:59:57;;;;;;;7.60;0.82;;;;;;;14.91;33.66;101421.13;5005541;28;20517;-64
2021/10/15 10:02:23;;;;;;;4.97;0.57;;;;;;;13.48;34.00;101419.84;5004763;28;20324;-65
2021/10/15 10:04:51;;;;;;;7.05;0.55;;;;;;;13.98;33.43;101425.56;5004611;28;20221;-66
2021/10/15 10:07:18;;;;;;;11.25;0.95;;;;;;;14.38;33.08;101428.97;5004329;28;20478;-64
2021/10/15 10:09:44;;;;;;;6.22;0.70;;;;;;;14.64;32.39;101430.41;4990357;28;20034;-65
2021/10/15 10:12:12;;;;;;;11.20;0.65;;;;;;;14.06;31.29;101442.69;5007193;28;20518;-65
2021/10/15 10:14:38;;;;;;;13.65;0.93;;;;;;;13.28;32.00;101443.47;4991349;28;20034;-64
2021/10/15 10:17:08;;;;;;;10.63;0.63;;;;;;;14.67;31.80;101446.88;5004196;28;20387;-65
2021/10/15 10:19:37;;;;;;;6.53;0.40;;;;;;;14.58;31.67;101449.09;5008545;28;20076;-65
2021/10/15 10:22:04;;;;;;;5.78;0.70;;;;;;;15.29;30.84;101449.16;4990817;28;20069;-65
2021/10/15 10:24:32;;;;;;;7.72;0.55;;;;;;;14.40;31.38;101446.38;4986669;28;20518;-65
2021/10/15 10:26:58;;;;;;;6.45;0.40;;;;;;;13.96;31.91;101430.03;5005376;28;20098;-65
2021/10/15 10:29:24;;;;;;;11.85;0.70;;;;;;;13.93;32.70;101450.28;5002303;28;20026;-66
2021/10/15 10:31:53;;;;;;;13.15;0.85;;;;;;;14.06;32.23;101452.38;4993682;28;20042;-64
2021/10/15 10:34:28;;;;;;;6.80;0.47;;;;;;;14.55;32.25;101464.09;5004693;28;20467;-64
2021/10/15 10:37:10;;;;;;;11.43;1.00;;;;;;;14.86;32.08;101473.16;5005763;28;20037;-65
2021/10/15 10:39:36;;;;;;;5.93;0.70;;;;;;;15.14;32.39;101469.16;5004410;28;20602;-65
2021/10/15 10:42:06;;;;;;;7.82;0.55;;;;;;;14.70;31.65;101473.06;5005776;28;20653;-65
2021/10/15 10:44:35;;;;;;;9.25;0.40;;;;;;;14.36;32.82;101476.38;5006646;28;20114;-65
2021/10/15 10:47:20;;;;;;;7.43;0.60;;;;;;;13.37;33.42;101485.09;4992980;28;20167;-65
2021/10/15 10:50:00;;;;;;;9.98;1.30;;;;;;;14.07;33.43;101477.72;5011007;28;20039;-65
2021/10/15 10:52:26;;;;;;;9.30;0.93;;;;;;;13.97;32.63;101479.06;5009631;28;20041;-64
2021/10/15 10:54:51;;;;;;;5.13;0.65;;;;;;;14.87;32.39;101487.16;5007636;28;20541;-64
2021/10/15 10:57:20;;;;;;;9.32;0.98;;;;;;;14.32;31.96;101486.19;4989520;28;20490;-64
2021/10/15 10:59:46;;;;;;;8.35;0.63;;;;;;;14.48;32.06;101489.00;5012467;28;20517;-65
2021/10/15 11:02:15;;;;;;;7.47;1.23;;;;;;;14.18;32.56;101487.75;4996587;28;20429;-65
2021/10/15 11:04:41;;;;;;;9.05;0.55;;;;;;;13.74;33.10;101488.78;5010162;28;20052;-65
2021/10/15 11:07:16;;;;;;;12.57;0.93;;;;;;;14.61;33.33;101493.66;5057354;22;20045;-64
2021/10/15 11:09:44;;;;;;;4.93;0.98;;;;;;;14.28;33.42;101505.66;5049664;28;20056;-65
2021/10/15 11:12:21;;;;;;;8.88;0.50;;;;;;;13.04;35.93;101524.09;5034503;28;20048;-65
2021/10/15 11:14:52;;;;;;;16.20;1.33;;;;;;;13.62;35.80;101524.31;5053864;28;20246;-66
2021/10/15 11:17:19;;;;;;;6.72;1.05;;;;;;;12.81;36.33;101517.13;5032628;28;20045;-63
2021/10/15 11:19:45;;;;;;;10.52;1.10;;;;;;;13.04;35.94;101519.69;5029468;28;20053;-66
2021/10/15 11:22:11;;;;;;;5.68;0.52;;;;;;;14.09;34.00;101528.44;5016992;28;20054;-65
2021/10/15 11:24:37;;;;;;;6.32;0.60;;;;;;;14.61;33.57;101523.44;5030717;28;20087;-66
2021/10/15 11:27:16;;;;;;;6.93;0.65;;;;;;;14.72;33.32;101531.72;5032779;28;20072;-66
2021/10/15 11:29:52;;;;;;;7.65;0.47;;;;;;;15.20;32.64;101536.47;5033150;28;20036;-66
2021/10/15 11:32:33;;;;;;;4.85;0.60;;;;;;;14.92;32.34;101527.25;5032074;28;20105;-63
2021/10/15 11:35:15;;;;;;;8.27;0.98;;;;;;;14.90;32.75;101530.00;5013909;28;20445;-65